Time;durP1;ratioP1;P1;durP2;ratioP2;P2;SDS_P1;SDS_P2;PMS_P1;PMS_P2;Temp;Humidity;BMP_temperature;BMP_pressure;BME280_temperature;BME280_humidity;BME280_pressure;Samples;Min_cycle;Max_cycle;Signal;HPM_P1;HPM_P2
2023/10/02 00:02:40;;;;;;;20.10;9.45;;;14.20;99.90;;;;;;4924100;29;20026;-85
2023/10/02 00:05:05;;;;;;;21.98;10.02;;;;;;;;;;4922305;29;20043;-83
2023/10/02 00:07:36;;;;;;;19.38;8.30;;;14.20;99.90;;;;;;4921215;29;20028;-84
2023/10/02 00:10:04;;;;;;;19.35;8.32;;;14.20;99.90;;;;;;4936698;29;20036;-85
2023/10/02 00:12:31;;;;;;;20.73;8.85;;;;;;;;;;4923979;29;20028;-86
2023/10/02 00:14:58;;;;;;;17.58;7.85;;;;;;;;;;4922488;29;20032;-86
2023/10/02 00:17:24;;;;;;;20.23;8.57;;;;;;;;;;4924672;29;20028;-86
2023/10/02 00:19:57;;;;;;;17.15;8.35;;;14.10;99.90;;;;;;4924049;29;20028;-87
2023/10/02 00:22:38;;;;;;;16.67;8.55;;;14.10;99.90;;;;;;4936548;29;20157;-84
2023/10/02 00:25:07;;;;;;;19.20;8.95;;;;;;;;;;4938361;29;20036;-86
2023/10/02 00:27:34;;;;;;;15.70;8.25;;;;;;;;;;4919271;29;20100;-87
2023/10/02 00:30:01;;;;;;;20.60;9.23;;;;;;;;;;4919250;29;20052;-83
2023/10/02 00:32:31;;;;;;;20.08;9.63;;;;;;;;;;4920303;29;20043;-85
2023/10/02 00:35:00;;;;;;;22.05;9.25;;;;;;;;;;4935236;29;20079;-83
2023/10/02 00:37:51;;;;;;;20.33;9.60;;;;;;;;;;4924986;29;20040;-80
2023/10/02 00:40:14;;;;;;;19.80;9.00;;;;;;;;;;4919531;29;20032;-82
2023/10/02 00:42:40;;;;;;;19.92;9.02;;;;;;;;;;4919164;29;20024;-84
2023/10/02 00:45:08;;;;;;;22.02;9.32;;;;;;;;;;4919138;29;20036;-86
2023/10/02 00:50:11;;;;;;;19.42;8.65;;;14.00;99.90;;;;;;4923688;29;20035;-84
2023/10/02 00:52:42;;;;;;;19.70;8.40;;;13.90;99.90;;;;;;4918143;29;20060;-85
2023/10/02 00:55:16;;;;;;;18.67;8.98;;;14.00;99.90;;;;;;4925087;29;20040;-85
2023/10/02 00:57:45;;;;;;;18.55;9.15;;;13.90;99.90;;;;;;4921877;29;20039;-81
2023/10/02 01:00:19;;;;;;;19.27;8.93;;;13.90;99.90;;;;;;4935224;29;20024;-86
2023/10/02 01:02:51;;;;;;;17.63;8.27;;;13.80;99.90;;;;;;4923273;29;20045;-83
2023/10/02 01:05:21;;;;;;;20.35;9.05;;;;;;;;;;4933713;29;20043;-86
2023/10/02 01:07:53;;;;;;;17.50;8.70;;;13.80;99.90;;;;;;4922354;29;20040;-82
2023/10/02 01:10:19;;;;;;;17.73;7.95;;;;;;;;;;4921917;29;20032;-83
2023/10/02 01:12:49;;;;;;;17.42;8.75;;;13.70;99.90;;;;;;4923699;29;20055;-83
2023/10/02 01:15:19;;;;;;;18.58;8.35;;;13.70;99.90;;;;;;4916002;29;20069;-86
2023/10/02 01:17:48;;;;;;;16.88;8.38;;;13.70;99.90;;;;;;4916609;29;20043;-85
2023/10/02 01:20:35;;;;;;;19.55;8.93;;;;;;;;;;4939340;29;20057;-86
2023/10/02 01:23:17;;;;;;;17.20;7.65;;;13.70;99.90;;;;;;4919353;29;20071;-82
2023/10/02 01:25:47;;;;;;;17.25;7.85;;;13.70;99.90;;;;;;4916775;29;20036;-84
2023/10/02 01:28:16;;;;;;;21.20;9.30;;;13.70;99.90;;;;;;4931173;29;20386;-84
2023/10/02 01:30:44;;;;;;;18.98;7.97;;;13.70;99.90;;;;;;4934651;29;20060;-84
2023/10/02 01:33:14;;;;;;;19.63;8.10;;;13.60;99.90;;;;;;4935478;29;20020;-83
2023/10/02 01:35:48;;;;;;;17.85;7.68;;;13.60;99.90;;;;;;4920790;29;20099;-83
2023/10/02 01:38:32;;;;;;;19.58;8.20;;;13.60;99.90;;;;;;4921687;29;20027;-85
2023/10/02 01:41:06;;;;;;;18.15;8.02;;;13.60;99.90;;;;;;4920070;29;20036;-79
2023/10/02 01:43:44;;;;;;;17.15;7.78;;;13.60;99.90;;;;;;4916909;29;20035;-84
2023/10/02 01:46:18;;;;;;;18.35;8.32;;;13.60;99.90;;;;;;4918613;29;20029;-84
2023/10/02 01:48:44;;;;;;;17.80;8.02;;;13.60;99.90;;;;;;4938767;29;20028;-82
2023/10/02 01:51:20;;;;;;;18.42;8.75;;;13.60;99.90;;;;;;4920873;29;20031;-83
2023/10/02 01:53:57;;;;;;;20.10;8.80;;;15.40;99.90;;;;;;4923363;29;20024;-83
2023/10/02 01:56:29;;;;;;;19.58;8.30;;;13.60;99.90;;;;;;4927100;29;20044;-83
2023/10/02 01:59:08;;;;;;;15.85;7.43;;;13.60;99.90;;;;;;4923840;29;20418;-83
2023/10/02 02:01:46;;;;;;;20.48;7.90;;;;;;;;;;4925253;29;20100;-85
2023/10/02 02:04:16;;;;;;;18.13;8.43;;;13.50;99.90;;;;;;4922740;29;20040;-82
2023/10/02 02:06:54;;;;;;;16.67;8.25;;;13.50;99.90;;;;;;4924796;29;20063;-85
2023/10/02 02:09:24;;;;;;;18.17;8.40;;;13.50;99.90;;;;;;4921633;29;20028;-81
2023/10/02 02:12:12;;;;;;;18.58;8.45;;;13.40;99.90;;;;;;4930561;29;20028;-88
2023/10/02 02:14:49;;;;;;;19.27;8.90;;;;;;;;;;4940223;29;20031;-83
2023/10/02 02:17:16;;;;;;;16.00;7.72;;;;;;;;;;4938262;28;20027;-85
2023/10/02 02:19:50;;;;;;;20.00;7.95;;;13.40;99.90;;;;;;4924593;29;20527;-86
2023/10/02 02:22:31;;;;;;;17.08;8.02;;;13.40;99.90;;;;;;4916810;29;20119;-85
2023/10/02 02:24:58;;;;;;;17.65;7.50;;;13.30;99.90;;;;;;4942448;29;20157;-84
2023/10/02 02:27:24;;;;;;;15.63;7.95;;;13.30;99.90;;;;;;4912291;29;20065;-82
2023/10/02 02:29:54;;;;;;;17.80;7.53;;;13.30;99.90;;;;;;4922538;29;20043;-82
2023/10/02 02:32:36;;;;;;;21.08;8.95;;;13.30;99.90;;;;;;4928958;29;20028;-82
2023/10/02 02:35:05;;;;;;;19.38;7.75;;;13.20;99.90;;;;;;4926587;29;20427;-80
2023/10/02 02:37:32;;;;;;;15.93;7.85;;;;;;;;;;4929365;29;20028;-84
2023/10/02 02:40:22;;;;;;;17.20;8.40;;;;;;;;;;4930129;29;20055;-82
2023/10/02 02:42:45;;;;;;;16.75;7.95;;;;;;;;;;4923915;29;20031;-83
2023/10/02 02:48:10;;;;;;;18.50;8.35;;;13.00;99.90;;;;;;4920429;29;20032;-86
2023/10/02 02:50:43;;;;;;;20.25;8.65;;;13.00;99.90;;;;;;4930778;29;20115;-84
2023/10/02 02:53:16;;;;;;;21.05;9.15;;;13.00;99.90;;;;;;4937023;29;20032;-86
2023/10/02 02:55:57;;;;;;;18.40;8.07;;;13.00;99.90;;;;;;4921736;29;20034;-84
2023/10/02 02:58:25;;;;;;;19.38;8.55;;;;;;;;;;4923103;29;20028;-86
2023/10/02 03:00:53;;;;;;;20.95;8.98;;;13.00;99.90;;;;;;4941291;29;20031;-83
2023/10/02 03:03:34;;;;;;;18.70;8.77;;;;;;;;;;4929328;29;20040;-84
2023/10/02 03:06:00;;;;;;;19.20;8.00;;;13.00;99.90;;;;;;4921069;29;20028;-83
2023/10/02 03:08:39;;;;;;;18.98;8.98;;;12.90;99.90;;;;;;4924810;29;20055;-82
2023/10/02 03:11:10;;;;;;;18.77;8.18;;;;;;;;;;4920029;29;20516;-83
2023/10/02 03:13:39;;;;;;;21.42;8.45;;;12.90;99.90;;;;;;4923912;29;20032;-85
2023/10/02 03:16:28;;;;;;;19.33;8.18;;;12.90;99.90;;;;;;4923453;29;20051;-82
2023/10/02 03:18:54;;;;;;;20.45;8.40;;;;;;;;;;4929918;29;20028;-85
2023/10/02 03:21:24;;;;;;;21.20;8.93;;;;;;;;;;4939663;28;20103;-83
2023/10/02 03:23:59;;;;;;;17.17;8.15;;;13.00;99.90;;;;;;4921116;29;20032;-82
2023/10/02 03:29:11;;;;;;;19.65;8.68;;;13.00;99.90;;;;;;4922799;29;20032;-84
2023/10/02 03:31:49;;;;;;;16.58;8.68;;;13.00;99.90;;;;;;4933001;29;20425;-83
2023/10/02 03:34:32;;;;;;;16.50;7.57;;;14.40;99.90;;;;;;4915183;29;20499;-84
2023/10/02 03:39:52;;;;;;;21.50;8.18;;;12.90;99.90;;;;;;4926114;29;20111;-86
2023/10/02 03:42:22;;;;;;;21.52;7.93;;;12.90;99.90;;;;;;4922069;29;20350;-86
2023/10/02 03:44:54;;;;;;;20.50;8.93;;;12.90;99.90;;;;;;4922636;29;20031;-84
2023/10/02 03:47:21;;;;;;;17.42;8.00;;;12.80;99.90;;;;;;4924373;29;20028;-83
2023/10/02 03:49:47;;;;;;;20.15;7.97;;;;;;;;;;4922939;29;20036;-83
2023/10/02 03:52:14;;;;;;;19.08;8.02;;;12.80;99.90;;;;;;4922805;29;20039;-83
2023/10/02 03:54:44;;;;;;;17.92;8.70;;;12.70;99.90;;;;;;4920744;29;20032;-86
2023/10/02 03:59:55;;;;;;;17.73;8.52;;;12.70;99.90;;;;;;4926217;29;20092;-84
2023/10/02 04:02:24;;;;;;;17.90;7.88;;;12.80;99.90;;;;;;4923026;29;20051;-82
2023/10/02 04:04:50;;;;;;;17.88;7.32;;;;;;;;;;4924920;29;20042;-84
2023/10/02 04:07:17;;;;;;;17.40;7.40;;;12.70;99.90;;;;;;4924748;29;20055;-84
2023/10/02 04:09:50;;;;;;;18.20;7.65;;;12.90;99.90;;;;;;4940438;29;20029;-84
2023/10/02 04:12:17;;;;;;;18.48;8.15;;;12.70;99.90;;;;;;4925070;29;20055;-84
2023/10/02 04:14:43;;;;;;;17.83;7.68;;;;;;;;;;4924184;29;20113;-86
2023/10/02 04:17:14;;;;;;;17.38;7.47;;;12.70;99.90;;;;;;4924353;29;20032;-84
2023/10/02 04:19:48;;;;;;;20.42;8.00;;;12.60;99.90;;;;;;4920826;29;20486;-85
2023/10/02 04:22:22;;;;;;;19.15;8.02;;;12.60;99.90;;;;;;4939919;29;20055;-83
2023/10/02 04:24:58;;;;;;;16.27;7.47;;;12.60;99.90;;;;;;4935488;29;20036;-85
2023/10/02 04:28:12;;;;;;;17.65;7.97;;;12.60;99.90;;;;;;4923201;29;20047;-83
2023/10/02 04:32:49;;;;;;;18.75;8.43;;;12.60;99.90;;;;;;4922685;29;20031;-85
2023/10/02 04:38:07;;;;;;;18.80;7.88;;;;;;;;;;4925647;29;20068;-84
2023/10/02 04:40:51;;;;;;;15.18;7.70;;;12.60;99.90;;;;;;4937218;29;20032;-85
2023/10/02 04:43:25;;;;;;;15.55;7.25;;;12.60;99.90;;;;;;4921850;29;20118;-83
2023/10/02 04:46:08;;;;;;;19.90;8.30;;;12.60;99.90;;;;;;4920847;29;20031;-85
2023/10/02 04:48:42;;;;;;;18.02;8.07;;;12.50;99.90;;;;;;4916931;29;20044;-87
2023/10/02 04:51:09;;;;;;;14.93;7.22;;;12.50;99.90;;;;;;4938866;29;20024;-81
2023/10/02 04:53:36;;;;;;;20.77;8.13;;;12.40;99.90;;;;;;4921827;29;20502;-86
2023/10/02 04:59:09;;;;;;;16.63;8.38;;;12.40;99.90;;;;;;4920750;29;20082;-87
2023/10/02 05:01:41;;;;;;;21.13;8.27;;;12.80;99.90;;;;;;4920504;29;20044;-84
2023/10/02 05:04:07;;;;;;;17.40;7.90;;;12.40;99.90;;;;;;4921729;29;20055;-80
2023/10/02 05:06:44;;;;;;;20.63;8.95;;;12.30;99.90;;;;;;4920940;29;20063;-85
2023/10/02 05:11:52;;;;;;;20.92;9.23;;;12.30;99.90;;;;;;4921983;29;20028;-84
2023/10/02 05:14:34;;;;;;;20.92;8.80;;;12.80;99.90;;;;;;4935392;29;20028;-86
2023/10/02 05:17:19;;;;;;;21.65;9.05;;;12.20;99.90;;;;;;4922180;29;20039;-85
2023/10/02 05:19:54;;;;;;;17.25;8.20;;;12.20;99.90;;;;;;4919708;29;20024;-86
2023/10/02 05:22:24;;;;;;;20.65;8.48;;;12.20;99.90;;;;;;4932879;29;20025;-84
2023/10/02 05:24:58;;;;;;;16.83;8.05;;;12.20;99.90;;;;;;4922665;29;20036;-85
2023/10/02 05:27:30;;;;;;;22.67;8.50;;;12.20;99.90;;;;;;4926403;29;20024;-85
2023/10/02 05:30:00;;;;;;;19.23;8.63;;;12.10;99.90;;;;;;4927775;29;20031;-85
2023/10/02 05:32:31;;;;;;;16.73;8.20;;;12.10;99.90;;;;;;4937958;29;20522;-84
2023/10/02 05:35:34;;;;;;;20.80;8.65;;;12.10;99.90;;;;;;4944324;29;20032;-83
2023/10/02 05:37:54;;;;;;;19.50;8.75;;;12.10;99.90;;;;;;4924787;29;20516;-88
2023/10/02 05:48:37;;;;;;;19.42;8.20;;;12.00;99.90;;;;;;4921958;29;20036;-85
2023/10/02 05:51:09;;;;;;;20.20;7.95;;;12.10;99.90;;;;;;4932316;29;20032;-87
2023/10/02 05:53:37;;;;;;;21.45;8.70;;;12.10;99.90;;;;;;4923655;29;20036;-85
2023/10/02 05:56:12;;;;;;;21.02;8.27;;;;;;;;;;4931840;29;20043;-82
2023/10/02 05:58:44;;;;;;;19.52;8.00;;;12.20;99.90;;;;;;4933571;29;20121;-86
2023/10/02 06:01:26;;;;;;;20.52;8.80;;;12.10;99.90;;;;;;4933361;29;20072;-85
2023/10/02 06:04:00;;;;;;;22.13;8.35;;;12.20;99.90;;;;;;4921457;29;20080;-83
2023/10/02 06:06:27;;;;;;;20.45;8.18;;;12.20;99.90;;;;;;4920204;29;20036;-84
2023/10/02 06:08:55;;;;;;;20.65;8.32;;;12.20;99.90;;;;;;4935154;29;20032;-84
2023/10/02 06:11:26;;;;;;;17.38;8.13;;;12.30;99.90;;;;;;4936284;29;20029;-84
2023/10/02 06:13:55;;;;;;;19.42;8.95;;;;;;;;;;4918875;29;20036;-86
2023/10/02 06:16:26;;;;;;;18.92;8.23;;;12.30;99.90;;;;;;4919878;29;20029;-86
2023/10/02 06:19:02;;;;;;;19.00;7.90;;;;;;;;;;4919350;29;20034;-88
2023/10/02 06:21:40;;;;;;;21.45;9.65;;;12.30;99.90;;;;;;4931982;29;20056;-85
2023/10/02 06:24:07;;;;;;;21.92;9.32;;;12.30;99.90;;;;;;4922587;29;20028;-85
2023/10/02 06:26:49;;;;;;;18.05;8.48;;;;;;;;;;4900085;29;20061;-87
2023/10/02 06:29:22;;;;;;;21.15;8.73;;;;;;;;;;4929781;29;20039;-86
2023/10/02 06:31:51;;;;;;;18.65;9.15;;;12.30;99.90;;;;;;4907133;29;20114;-86
2023/10/02 06:34:18;;;;;;;18.67;8.27;;;12.30;99.90;;;;;;4912869;29;20032;-86
2023/10/02 06:37:02;;;;;;;21.27;9.07;;;;;;;;;;4906897;29;20032;-85
2023/10/02 06:39:35;;;;;;;20.02;9.30;;;;;;;;;;4911681;29;20040;-84
2023/10/02 06:42:04;;;;;;;21.08;8.60;;;;;;;;;;4925094;29;20056;-87
2023/10/02 06:44:38;;;;;;;19.10;9.55;;;12.30;99.90;;;;;;4913874;29;20039;-87
2023/10/02 06:47:11;;;;;;;17.45;8.43;;;;;;;;;;4916164;29;20043;-85
2023/10/02 06:49:39;;;;;;;18.88;8.38;;;;;;;;;;4912304;29;20040;-89
2023/10/02 06:52:13;;;;;;;17.85;7.97;;;;;;;;;;4913757;29;20040;-87
2023/10/02 06:54:45;;;;;;;19.58;8.85;;;;;;;;;;4915267;29;20039;-88
2023/10/02 06:57:15;;;;;;;16.60;8.77;;;12.70;99.90;;;;;;4914906;29;20020;-88
2023/10/02 06:59:51;;;;;;;22.30;9.05;;;12.80;99.90;;;;;;4924114;28;20028;-87
2023/10/02 07:02:19;;;;;;;19.27;9.35;;;12.80;99.90;;;;;;4914214;29;20024;-87
2023/10/02 07:04:47;;;;;;;22.15;8.75;;;;;;;;;;4931146;29;20481;-86
2023/10/02 07:07:13;;;;;;;18.00;8.52;;;;;;;;;;4911570;29;20429;-85
2023/10/02 07:09:39;;;;;;;19.65;9.15;;;;;;;;;;4910544;29;20068;-86
2023/10/02 07:12:09;;;;;;;17.88;8.80;;;13.40;99.90;;;;;;4911574;29;20075;-82
2023/10/02 07:14:38;;;;;;;17.60;8.13;;;13.50;99.90;;;;;;4912601;29;20494;-86
2023/10/02 07:17:16;;;;;;;18.52;8.68;;;13.60;99.90;;;;;;4928372;29;20096;-85
2023/10/02 07:19:52;;;;;;;19.27;8.30;;;13.60;99.90;;;;;;4915907;29;20032;-82
2023/10/02 07:22:25;;;;;;;18.60;8.48;;;13.70;99.90;;;;;;4916011;29;20024;-87
2023/10/02 07:24:54;;;;;;;18.20;9.00;;;13.80;99.90;;;;;;4918144;29;20052;-83
2023/10/02 07:27:24;;;;;;;20.55;8.50;;;;;;;;;;4932200;29;20059;-86
2023/10/02 07:29:57;;;;;;;24.60;12.45;;;13.80;99.90;;;;;;4918300;29;20115;-88
2023/10/02 07:32:25;;;;;;;17.48;8.20;;;14.00;99.90;;;;;;4912430;29;20032;-85
2023/10/02 07:34:52;;;;;;;22.05;8.75;;;14.10;99.90;;;;;;4912137;29;20506;-85
2023/10/02 07:37:21;;;;;;;17.13;8.20;;;14.20;99.90;;;;;;4919079;29;20040;-85
2023/10/02 07:39:58;;;;;;;17.80;8.07;;;14.30;99.90;;;;;;4915840;29;20032;-85
2023/10/02 07:42:25;;;;;;;16.23;8.05;;;;;;;;;;4914814;29;20024;-88
2023/10/02 07:44:52;;;;;;;20.90;9.35;;;;;;;;;;4915758;29;20039;-86
2023/10/02 07:47:19;;;;;;;19.13;9.13;;;;;;;;;;4939088;29;20553;-83
2023/10/02 07:49:48;;;;;;;19.48;8.10;;;;;;;;;;4923464;29;20027;-89
2023/10/02 07:52:35;;;;;;;19.47;8.80;;;14.90;99.90;;;;;;4932360;29;20036;-87
2023/10/02 07:55:01;;;;;;;18.58;8.18;;;;;;;;;;4915165;29;20039;-87
2023/10/02 07:57:30;;;;;;;17.58;8.55;;;;;;;;;;4914001;29;20028;-87
2023/10/02 07:59:58;;;;;;;17.90;8.35;;;15.20;99.90;;;;;;4920688;29;20024;-88
2023/10/02 08:02:27;;;;;;;18.77;8.18;;;;;;;;;;4921592;29;20024;-85
2023/10/02 08:04:53;;;;;;;17.83;8.13;;;;;;;;;;4932537;29;20087;-87
2023/10/02 08:07:19;;;;;;;18.65;8.13;;;;;;;;;;4937445;28;20036;-88
2023/10/02 08:09:48;;;;;;;19.52;8.60;;;15.80;99.90;;;;;;4916551;29;20904;-79
2023/10/02 08:12:29;;;;;;;19.58;8.38;;;16.00;99.90;;;;;;4923687;29;20060;-83
2023/10/02 08:14:59;;;;;;;20.05;9.13;;;16.10;99.90;;;;;;4926088;29;20078;-80
2023/10/02 08:17:59;;;;;;;19.85;8.68;;;16.10;99.90;;;;;;4922883;29;20043;-79
2023/10/02 08:20:16;;;;;;;20.83;8.20;;;16.30;99.90;;;;;;4906313;29;20080;-79
2023/10/02 08:22:46;;;;;;;18.88;8.32;;;16.50;99.90;;;;;;4905472;29;20079;-79
2023/10/02 08:25:13;;;;;;;19.95;8.05;;;16.60;99.90;;;;;;4906442;29;20499;-78
2023/10/02 08:27:42;;;;;;;18.60;8.30;;;16.40;99.90;;;;;;4927242;29;20462;-78
2023/10/02 08:32:53;;;;;;;20.52;8.18;;;;;;;;;;4906351;29;20051;-78
2023/10/02 08:35:19;;;;;;;18.58;8.63;;;16.90;99.90;;;;;;4909061;29;20051;-80
2023/10/02 08:37:46;;;;;;;18.90;8.18;;;;;;;;;;4909244;29;20112;-80
2023/10/02 08:40:14;;;;;;;17.92;7.55;;;17.20;99.90;;;;;;4929365;29;20478;-81
2023/10/02 08:42:46;;;;;;;17.67;8.50;;;17.30;99.90;;;;;;4908233;29;20036;-78
2023/10/02 08:45:18;;;;;;;17.73;8.18;;;17.70;99.90;;;;;;4913667;29;20029;-77
2023/10/02 08:47:47;;;;;;;21.80;9.20;;;17.50;99.90;;;;;;4904766;29;20020;-79
2023/10/02 08:50:15;;;;;;;15.30;7.95;;;17.80;99.90;;;;;;4907504;29;20032;-78
2023/10/02 08:52:53;;;;;;;18.15;7.32;;;17.70;99.90;;;;;;4910529;29;20032;-78
2023/10/02 08:55:35;;;;;;;19.77;8.27;;;17.90;99.90;;;;;;4908526;29;20734;-79
2023/10/02 08:58:15;;;;;;;22.60;7.55;;;18.00;99.90;;;;;;4914582;29;20443;-79
2023/10/02 09:03:49;;;;;;;21.42;8.73;;;18.40;99.90;;;;;;4909437;29;20203;-81
2023/10/02 09:06:25;;;;;;;17.48;7.45;;;18.60;99.90;;;;;;4930390;29;20052;-78
2023/10/02 09:11:35;;;;;;;19.48;8.00;;;18.80;99.90;;;;;;4917324;29;20457;-76
2023/10/02 09:14:23;;;;;;;19.77;8.63;;;19.00;99.90;;;;;;4908060;29;20092;-81
2023/10/02 09:20:03;;;;;;;17.92;7.55;;;19.70;99.90;;;;;;4922926;29;20067;-80
2023/10/02 09:22:41;;;;;;;19.80;7.70;;;19.90;99.90;;;;;;4917376;29;20107;-77
2023/10/02 09:25:26;;;;;;;18.70;8.15;;;20.20;99.90;;;;;;4925307;29;20028;-80
2023/10/02 09:27:56;;;;;;;18.73;7.60;;;20.30;99.90;;;;;;4918137;29;20092;-79
2023/10/02 09:33:08;;;;;;;19.27;9.13;;;;;;;;;;4918748;29;20055;-81
2023/10/02 09:38:04;;;;;;;18.33;8.75;;;21.70;99.90;;;;;;4911957;29;20036;-78
2023/10/02 09:43:24;;;;;;;15.20;7.43;;;20.40;99.90;;;;;;4908026;29;20048;-76
2023/10/02 09:45:55;;;;;;;17.95;8.23;;;20.50;99.90;;;;;;4918059;29;20028;-76
2023/10/02 09:51:25;;;;;;;17.42;7.75;;;20.80;99.90;;;;;;4911766;29;20043;-77
2023/10/02 09:54:05;;;;;;;18.25;8.48;;;21.20;99.90;;;;;;4906642;29;20032;-78
2023/10/02 09:56:53;;;;;;;17.17;8.00;;;21.30;99.90;;;;;;4915145;29;20055;-79
2023/10/02 09:59:22;;;;;;;17.90;8.23;;;21.50;99.90;;;;;;4910430;29;20039;-77
2023/10/02 10:05:22;;;;;;;16.35;7.63;;;21.60;99.90;;;;;;4921982;29;20024;-80
2023/10/02 10:10:45;;;;;;;14.65;6.68;;;21.50;99.90;;;;;;4913565;29;20028;-78
2023/10/02 10:13:26;;;;;;;17.67;8.25;;;22.70;99.90;;;;;;4910483;29;20028;-79
2023/10/02 10:16:11;;;;;;;19.42;8.55;;;21.60;99.90;;;;;;4914159;29;20040;-82
2023/10/02 10:22:00;;;;;;;19.25;8.50;;;21.70;99.90;;;;;;4911022;29;20032;-78
2023/10/02 10:24:51;;;;;;;15.90;7.72;;;21.80;99.90;;;;;;4908788;29;20092;-77
2023/10/02 10:27:39;;;;;;;19.63;8.60;;;21.90;99.90;;;;;;4915728;29;20048;-79
2023/10/02 10:30:28;;;;;;;15.07;7.60;;;22.00;99.90;;;;;;4914678;29;20035;-79
2023/10/02 10:35:49;;;;;;;17.63;8.10;;;22.30;99.90;;;;;;4909545;29;20166;-78
2023/10/02 10:38:26;;;;;;;16.42;7.78;;;22.90;99.90;;;;;;4914222;29;20390;-78
2023/10/02 10:40:55;;;;;;;16.55;7.95;;;22.90;99.90;;;;;;4919965;29;20119;-79
2023/10/02 10:44:07;;;;;;;19.73;8.67;;;23.10;99.90;;;;;;4910629;29;20028;-78
2023/10/02 10:46:12;;;;;;;18.92;8.95;;;23.20;99.90;;;;;;4910223;29;20028;-77
2023/10/02 10:48:40;;;;;;;18.63;8.50;;;23.40;99.90;;;;;;4912808;29;20060;-79
2023/10/02 10:51:20;;;;;;;18.77;8.45;;;23.40;99.90;;;;;;4913588;29;20383;-80
2023/10/02 10:54:00;;;;;;;;;;;23.50;99.90;;;;;;4912891;29;20175;-79
2023/10/02 10:56:27;;;;;;;18.27;7.95;;;23.50;99.90;;;;;;4910548;29;20445;-80
2023/10/02 10:58:53;;;;;;;22.85;9.52;;;23.70;99.90;;;;;;4919517;29;20493;-80
2023/10/02 11:01:23;;;;;;;16.00;8.38;;;23.70;99.90;;;;;;4912359;29;20036;-78
2023/10/02 11:03:54;;;;;;;15.93;8.15;;;23.80;99.90;;;;;;4913554;29;20039;-79
2023/10/02 11:06:23;;;;;;;18.98;9.25;;;23.80;99.90;;;;;;4920653;29;20055;-79
2023/10/02 11:09:12;;;;;;;17.73;8.40;;;23.90;99.90;;;;;;4919595;29;20103;-79
2023/10/02 11:11:50;;;;;;;19.48;9.20;;;23.90;99.90;;;;;;4915550;29;20032;-77
2023/10/02 11:14:20;;;;;;;18.30;8.73;;;23.90;99.90;;;;;;4928599;29;20458;-79
2023/10/02 11:16:51;;;;;;;19.60;9.32;;;23.80;99.90;;;;;;4914193;29;20028;-81
2023/10/02 11:22:15;;;;;;;17.92;8.75;;;23.70;99.90;;;;;;4919803;29;20043;-77
2023/10/02 11:24:45;;;;;;;19.42;8.95;;;23.70;99.90;;;;;;4908759;29;20104;-79
2023/10/02 11:27:14;;;;;;;18.05;9.15;;;23.80;99.90;;;;;;4912895;29;20498;-78
2023/10/02 11:29:41;;;;;;;17.85;8.80;;;23.80;99.90;;;;;;4918699;29;20032;-80
2023/10/02 11:32:19;;;;;;;18.27;8.73;;;23.80;99.90;;;;;;4911439;29;20106;-77
2023/10/02 11:35:02;;;;;;;21.40;8.63;;;23.80;99.90;;;;;;4916645;29;20066;-80
2023/10/02 11:37:28;;;;;;;19.80;9.93;;;;;;;;;;4921233;29;20038;-78
2023/10/02 11:39:55;;;;;;;17.92;8.73;;;;;;;;;;4914115;29;20541;-79
2023/10/02 11:42:27;;;;;;;18.98;9.48;;;24.10;99.90;;;;;;5047151;28;20462;-78
2023/10/02 11:44:54;;;;;;;20.17;10.13;;;;;;;;;;5041402;28;20033;-81
2023/10/02 11:47:20;;;;;;;18.98;8.95;;;24.20;99.90;;;;;;5037894;28;20488;-79
2023/10/02 11:49:45;;;;;;;19.45;9.40;;;24.30;99.90;;;;;;5024662;28;20029;-78
2023/10/02 11:52:11;;;;;;;19.05;8.55;;;24.30;99.90;;;;;;5024917;28;20095;-79
2023/10/02 11:54:39;;;;;;;21.52;9.23;;;;;;;;;;5024930;28;20506;-79
2023/10/02 11:57:12;;;;;;;21.27;8.82;;;24.50;99.90;;;;;;5020449;28;20557;-80
2023/10/02 11:59:41;;;;;;;17.25;8.65;;;24.50;99.90;;;;;;5020810;28;20022;-78
2023/10/02 12:02:10;;;;;;;18.67;9.07;;;24.50;99.90;;;;;;5023721;28;20037;-77
2023/10/02 12:04:39;;;;;;;16.98;9.15;;;24.60;99.90;;;;;;5020531;28;20033;-76
2023/10/02 12:07:06;;;;;;;20.23;9.27;;;24.70;99.90;;;;;;5022448;28;20030;-78
2023/10/02 12:09:33;;;;;;;17.90;8.93;;;24.70;99.90;;;;;;5021662;28;20022;-77
2023/10/02 12:12:00;;;;;;;19.23;9.90;;;24.70;99.90;;;;;;5021458;28;20037;-77
2023/10/02 12:14:26;;;;;;;18.35;8.68;;;24.70;99.90;;;;;;5021779;28;20034;-76
2023/10/02 12:16:54;;;;;;;18.83;9.10;;;24.60;99.90;;;;;;5024754;28;20029;-77
2023/10/02 12:19:21;;;;;;;18.30;9.10;;;24.60;99.90;;;;;;5020316;28;20124;-77
2023/10/02 12:21:47;;;;;;;19.52;8.88;;;24.70;99.90;;;;;;5014880;28;20159;-77
2023/10/02 12:24:14;;;;;;;18.65;8.60;;;24.70;99.90;;;;;;5019161;28;20109;-77
2023/10/02 12:26:40;;;;;;;18.25;8.30;;;24.80;99.90;;;;;;5016043;28;20032;-76
2023/10/02 12:29:06;;;;;;;22.40;9.13;;;;;;;;;;5037474;28;20022;-78
2023/10/02 12:31:36;;;;;;;20.55;9.00;;;24.90;99.90;;;;;;5021290;28;20034;-78
2023/10/02 12:34:03;;;;;;;20.63;9.30;;;25.10;99.90;;;;;;5019418;28;20036;-77
2023/10/02 12:36:28;;;;;;;18.50;9.15;;;25.10;99.90;;;;;;5017428;28;20482;-76
2023/10/02 12:38:54;;;;;;;21.27;9.73;;;25.20;99.90;;;;;;5022920;28;20026;-77
2023/10/02 12:41:21;;;;;;;20.25;9.80;;;25.20;99.90;;;;;;5023003;28;20418;-76
2023/10/02 12:43:55;;;;;;;20.27;9.00;;;25.20;99.90;;;;;;5021793;28;20032;-78
2023/10/02 12:46:22;;;;;;;19.15;9.43;;;25.30;99.90;;;;;;5023099;28;20064;-77
2023/10/02 12:48:48;;;;;;;22.25;10.57;;;25.30;99.90;;;;;;5018529;28;20030;-78
2023/10/02 12:51:14;;;;;;;26.52;11.05;;;25.30;99.90;;;;;;5022312;28;20097;-76
2023/10/02 12:53:41;;;;;;;17.75;9.60;;;25.30;99.90;;;;;;5017505;28;20199;-76
2023/10/02 12:56:07;;;;;;;17.48;9.35;;;25.30;99.90;;;;;;5016220;28;20030;-79
2023/10/02 12:58:33;;;;;;;18.65;8.60;;;;;;;;;;5009364;28;20054;-78
2023/10/02 13:01:00;;;;;;;18.35;9.13;;;25.30;99.90;;;;;;5005632;28;20031;-78
2023/10/02 13:03:31;;;;;;;20.80;9.65;;;25.30;99.90;;;;;;5008062;28;20056;-79
2023/10/02 13:06:01;;;;;;;18.85;9.32;;;25.40;99.90;;;;;;5006267;28;20030;-77
2023/10/02 13:08:29;;;;;;;17.77;9.07;;;;;;;;;;5012042;28;20760;-79
2023/10/02 13:10:55;;;;;;;16.90;8.85;;;;;;;;;;5014869;28;20133;-82
2023/10/02 13:13:21;;;;;;;19.90;9.57;;;25.50;99.90;;;;;;5034434;28;20091;-79
2023/10/02 13:15:51;;;;;;;19.73;9.73;;;;;;;;;;5014541;28;20030;-80
2023/10/02 13:18:17;;;;;;;20.35;10.68;;;;;;;;;;5015147;28;20403;-80
2023/10/02 13:20:43;;;;;;;19.98;10.10;;;25.60;99.90;;;;;;5017357;28;20040;-78
2023/10/02 13:23:10;;;;;;;22.77;9.85;;;;;;;;;;5016160;28;20033;-79
2023/10/02 13:25:39;;;;;;;25.08;9.95;;;25.70;99.90;;;;;;5015317;28;20022;-79
2023/10/02 13:28:05;;;;;;;21.50;10.43;;;25.70;99.90;;;;;;5009350;28;20045;-80
2023/10/02 13:30:31;;;;;;;20.05;9.73;;;;;;;;;;5009479;28;20087;-78
2023/10/02 13:32:57;;;;;;;22.50;10.25;;;;;;;;;;5011674;28;20113;-78
2023/10/02 13:35:23;;;;;;;22.45;10.35;;;;;;;;;;5009116;28;20113;-78
2023/10/02 13:37:53;;;;;;;21.98;10.07;;;;;;;;;;5019522;28;20030;-78
2023/10/02 13:40:26;;;;;;;23.08;10.35;;;;;;;;;;5014307;28;20029;-79
2023/10/02 13:42:53;;;;;;;21.73;10.48;;;25.50;99.90;;;;;;5006166;28;20053;-79
2023/10/02 13:45:19;;;;;;;21.40;11.38;;;;;;;;;;5014820;28;20022;-79
2023/10/02 13:47:49;;;;;;;22.05;10.63;;;25.40;99.90;;;;;;5014425;28;20093;-78
2023/10/02 13:50:15;;;;;;;27.83;11.15;;;;;;;;;;5016892;28;20030;-78
2023/10/02 13:52:42;;;;;;;22.20;9.88;;;25.50;99.90;;;;;;5005020;28;20018;-79
2023/10/02 13:55:30;;;;;;;19.80;10.13;;;;;;;;;;5013288;28;20054;-77
2023/10/02 13:57:56;;;;;;;20.27;10.18;;;25.50;99.90;;;;;;5015260;28;20113;-79
2023/10/02 14:00:25;;;;;;;20.98;10.73;;;;;;;;;;5007619;28;20027;-79
2023/10/02 14:02:51;;;;;;;19.92;10.32;;;25.80;99.80;;;;;;5034042;28;20104;-78
2023/10/02 14:05:18;;;;;;;22.17;10.43;;;;;;;;;;5010443;28;20050;-78
2023/10/02 14:07:51;;;;;;;22.33;10.50;;;;;;;;;;5011957;28;20030;-80
2023/10/02 14:10:17;;;;;;;21.30;10.52;;;;;;;;;;5012087;28;20030;-78
2023/10/02 14:12:44;;;;;;;23.67;10.30;;;25.60;99.90;;;;;;5014135;28;20115;-79
2023/10/02 14:15:10;;;;;;;25.30;10.88;;;25.40;99.90;;;;;;5011663;28;20033;-79
2023/10/02 14:17:36;;;;;;;26.02;11.95;;;;;;;;;;5009580;28;20018;-78
2023/10/02 14:20:06;;;;;;;22.58;10.57;;;;;;;;;;5015104;28;20052;-78
2023/10/02 14:22:37;;;;;;;25.17;11.63;;;;;;;;;;5013050;28;20121;-79
2023/10/02 14:25:06;;;;;;;21.77;10.60;;;;;;;;;;5014863;28;20117;-79
2023/10/02 14:27:32;;;;;;;24.15;10.60;;;;;;;;;;5011744;28;20099;-78
2023/10/02 14:29:58;;;;;;;23.00;11.10;;;;;;;;;;5008863;28;20029;-79
2023/10/02 14:32:24;;;;;;;22.75;11.10;;;;;;;;;;5019618;28;20112;-78
2023/10/02 14:34:54;;;;;;;22.80;11.05;;;25.40;99.90;;;;;;5011461;28;20046;-78
2023/10/02 14:37:20;;;;;;;24.67;12.32;;;25.30;99.90;;;;;;5012331;28;20034;-77
2023/10/02 14:39:46;;;;;;;32.15;12.27;;;;;;;;;;5014182;28;20040;-78